createdAt,value
2022-10-19T00:01:18.596Z,87.52
2022-10-19T00:06:27.154Z,87.63
2022-10-19T00:09:04.723Z,87.79
2022-10-19T00:11:34.979Z,87.95
2022-10-19T00:14:04.369Z,88.07
2022-10-19T00:16:36.042Z,88.22
2022-10-19T00:19:11.896Z,88.18
2022-10-19T00:21:41.023Z,88.22
2022-10-19T00:24:09.516Z,88.37
2022-10-19T00:26:38.228Z,88.42
2022-10-19T00:29:07.462Z,88.45
2022-10-19T00:31:35.780Z,88.28
2022-10-19T00:34:04.185Z,88.40
2022-10-19T00:36:36.013Z,88.14
2022-10-19T00:39:07.377Z,88.18
2022-10-19T00:41:37.145Z,88.26
2022-10-19T00:44:27.124Z,88.18
2022-10-19T00:47:00.003Z,88.53
2022-10-19T00:49:36.081Z,88.47
2022-10-19T00:52:10.824Z,88.35
2022-10-19T00:54:41.431Z,88.48
2022-10-19T00:57:11.153Z,88.39
2022-10-19T00:59:41.844Z,88.43
2022-10-19T01:02:10.014Z,88.54
2022-10-19T01:04:42.484Z,88.80
2022-10-19T01:07:11.292Z,88.92
2022-10-19T01:09:39.360Z,89.10
2022-10-19T01:12:29.180Z,89.26
2022-10-19T01:15:21.147Z,89.35
2022-10-19T01:18:05.300Z,89.22
2022-10-19T01:20:50.124Z,89.07
2022-10-19T01:23:21.116Z,89.07
2022-10-19T01:26:04.434Z,89.14
2022-10-19T01:28:57.853Z,88.82
2022-10-19T01:31:38.001Z,88.99
2022-10-19T01:34:19.886Z,89.02
2022-10-19T01:37:26.393Z,89.05
2022-10-19T01:40:06.664Z,88.80
2022-10-19T01:42:45.366Z,88.83
2022-10-19T01:45:22.984Z,88.89
2022-10-19T01:48:00.127Z,88.90
2022-10-19T01:50:46.580Z,88.73
2022-10-19T01:53:18.041Z,88.68
2022-10-19T01:55:50.644Z,88.52
2022-10-19T01:58:27.624Z,88.49
2022-10-19T02:00:59.696Z,88.43
2022-10-19T02:03:28.889Z,88.68
2022-10-19T02:05:58.503Z,88.75
2022-10-19T02:08:35.036Z,88.68
2022-10-19T02:11:04.273Z,88.46
2022-10-19T02:13:33.452Z,88.59
2022-10-19T02:16:05.594Z,88.59
2022-10-19T02:18:39.673Z,88.27
2022-10-19T02:21:07.917Z,88.41
2022-10-19T02:23:36.423Z,88.62
2022-10-19T02:26:04.922Z,88.83
2022-10-19T02:28:33.389Z,88.70
2022-10-19T02:31:02.043Z,88.85
2022-10-19T02:33:31.187Z,88.79
2022-10-19T02:36:00.385Z,88.75
2022-10-19T02:38:28.940Z,88.79
2022-10-19T02:41:16.928Z,89.09
2022-10-19T02:43:49.707Z,89.16
2022-10-19T02:46:23.399Z,89.07
2022-10-19T02:48:52.003Z,89.19
2022-10-19T02:51:32.762Z,89.26
2022-10-19T02:54:04.186Z,89.53
2022-10-19T02:56:35.267Z,89.61
2022-10-19T02:59:05.084Z,89.63
2022-10-19T03:01:33.120Z,89.87
2022-10-19T03:04:01.203Z,89.78
2022-10-19T03:06:32.029Z,89.87
2022-10-19T03:09:00.062Z,90.14
2022-10-19T03:11:28.132Z,90.03
2022-10-19T03:13:56.192Z,90.02
2022-10-19T03:16:24.291Z,89.85
2022-10-19T03:18:52.589Z,90.25
2022-10-19T03:21:20.870Z,90.43
2022-10-19T03:23:48.907Z,90.52
2022-10-19T03:26:18.344Z,90.49
2022-10-19T03:28:47.457Z,90.43
2022-10-19T03:31:15.448Z,90.67
2022-10-19T03:33:43.455Z,90.51
2022-10-19T03:36:26.364Z,90.87
2022-10-19T03:38:56.824Z,91.14
2022-10-19T03:41:27.570Z,91.09
2022-10-19T03:43:56.486Z,91.19
2022-10-19T03:46:26.689Z,91.17
2022-10-19T03:48:55.060Z,91.32
2022-10-19T03:51:25.271Z,91.45
2022-10-19T03:53:59.879Z,91.83
2022-10-19T03:56:29.953Z,92.19
2022-10-19T03:59:00.342Z,92.43
2022-10-19T04:01:30.465Z,92.77
2022-10-19T04:04:03.407Z,93.31
2022-10-19T04:06:37.056Z,94.13
2022-10-19T04:09:07.159Z,94.40
2022-10-19T04:11:35.981Z,94.49
2022-10-19T04:14:04.951Z,94.65
2022-10-19T04:16:33.872Z,95.12
2022-10-19T04:19:01.988Z,95.22
2022-10-19T04:21:38.357Z,95.16
2022-10-19T04:24:15.539Z,95.17
2022-10-19T04:26:52.487Z,95.07
2022-10-19T04:29:25.061Z,95.00
2022-10-19T04:31:56.069Z,95.15
2022-10-19T04:34:24.501Z,95.20
2022-10-19T04:36:54.210Z,95.02
2022-10-19T04:39:22.329Z,95.80
2022-10-19T04:41:50.974Z,94.84
2022-10-19T04:44:19.203Z,94.24
2022-10-19T04:46:47.358Z,93.74
2022-10-19T04:49:17.967Z,93.32
2022-10-19T04:51:48.253Z,92.65
2022-10-19T04:54:17.362Z,92.44
2022-10-19T04:56:45.362Z,92.37
2022-10-19T04:59:13.434Z,92.55
2022-10-19T05:01:46.542Z,92.18
2022-10-19T05:04:15.557Z,92.58
2022-10-19T05:06:43.705Z,92.39
2022-10-19T05:09:11.872Z,92.61
2022-10-19T05:11:39.994Z,92.82
2022-10-19T05:14:08.177Z,93.10
2022-10-19T05:16:36.276Z,93.54
2022-10-19T05:19:04.367Z,93.69
2022-10-19T05:21:33.203Z,93.47
2022-10-19T05:24:01.337Z,93.17
2022-10-19T05:26:30.371Z,92.56
2022-10-19T05:29:04.635Z,91.99
2022-10-19T05:31:35.758Z,91.35
2022-10-19T05:34:04.494Z,91.26
2022-10-19T05:36:37.766Z,90.85
2022-10-19T05:39:15.975Z,89.82
2022-10-19T05:41:45.781Z,89.77
2022-10-19T05:44:16.752Z,89.40
2022-10-19T05:46:45.469Z,88.75
2022-10-19T05:49:15.293Z,88.31
2022-10-19T05:51:44.576Z,88.22
2022-10-19T05:54:14.243Z,88.28
2022-10-19T05:56:43.273Z,87.90
2022-10-19T05:59:16.377Z,87.87
2022-10-19T06:01:45.324Z,87.48
2022-10-19T06:04:15.224Z,87.39
2022-10-19T06:06:43.722Z,86.79
2022-10-19T06:09:12.645Z,86.10
2022-10-19T06:11:42.640Z,85.54
2022-10-19T06:14:15.877Z,85.30
2022-10-19T06:16:46.265Z,84.68
2022-10-19T06:19:14.934Z,84.07
2022-10-19T06:21:45.835Z,83.35
2022-10-19T06:24:15.011Z,82.71
2022-10-19T06:26:43.308Z,81.07
2022-10-19T06:29:11.857Z,79.80
2022-10-19T06:31:40.224Z,79.47
2022-10-19T06:34:10.957Z,78.74
2022-10-19T06:36:39.298Z,77.83
2022-10-19T06:39:07.572Z,76.82
2022-10-19T06:41:35.785Z,77.14
2022-10-19T06:44:19.173Z,76.89
2022-10-19T06:46:47.522Z,75.92
2022-10-19T06:49:15.868Z,75.62
2022-10-19T06:51:44.237Z,74.85
2022-10-19T06:54:12.471Z,73.59
2022-10-19T06:56:40.811Z,72.00
2022-10-19T06:59:09.155Z,70.87
2022-10-19T07:01:37.401Z,69.34
2022-10-19T07:04:05.817Z,68.05
2022-10-19T07:06:34.015Z,68.79
2022-10-19T07:09:02.972Z,68.65
2022-10-19T07:11:31.433Z,69.10
2022-10-19T07:13:59.717Z,68.57
2022-10-19T07:16:27.905Z,68.42
2022-10-19T07:18:56.092Z,66.79
2022-10-19T07:21:24.489Z,66.89
2022-10-19T07:23:52.715Z,66.86
2022-10-19T07:26:26.899Z,67.01
2022-10-19T07:28:58.212Z,63.65
2022-10-19T07:31:29.198Z,64.47
2022-10-19T07:34:01.069Z,63.97
2022-10-19T07:36:31.802Z,64.26
2022-10-19T07:39:01.978Z,62.96
2022-10-19T07:41:30.158Z,63.23
2022-10-19T07:43:58.438Z,62.74
2022-10-19T07:46:33.928Z,62.62
2022-10-19T07:49:03.813Z,63.38
2022-10-19T07:51:32.130Z,63.49
2022-10-19T07:54:00.537Z,63.42
2022-10-19T07:56:29.136Z,61.84
2022-10-19T07:58:59.249Z,62.62
2022-10-19T08:01:30.698Z,62.67
2022-10-19T08:06:49.738Z,61.61
2022-10-19T08:09:40.070Z,59.90
2022-10-19T08:12:07.182Z,60.25
2022-10-19T08:14:35.591Z,58.70
2022-10-19T08:17:04.237Z,57.86
2022-10-19T08:19:32.590Z,56.47
2022-10-19T08:22:00.830Z,55.25
2022-10-19T08:24:29.177Z,54.79
2022-10-19T08:26:57.577Z,56.77
2022-10-19T08:29:27.841Z,57.49
2022-10-19T08:31:59.334Z,57.77
2022-10-19T08:34:27.394Z,57.68
2022-10-19T08:36:55.471Z,57.22
2022-10-19T08:39:23.634Z,56.75
2022-10-19T08:42:15.238Z,57.54
2022-10-19T08:45:14.065Z,59.71
2022-10-19T08:48:00.497Z,61.18
2022-10-19T08:50:41.072Z,63.14
2022-10-19T08:53:43.998Z,64.28
2022-10-19T08:56:51.555Z,65.55
2022-10-19T08:59:42.899Z,67.14
2022-10-19T09:02:15.735Z,67.37
2022-10-19T09:04:50.526Z,67.02
2022-10-19T09:07:45.568Z,66.01
2022-10-19T09:10:13.575Z,63.58
2022-10-19T09:13:02.763Z,63.10
2022-10-19T09:15:44.365Z,61.44
2022-10-19T09:18:25.498Z,61.14
2022-10-19T09:21:21.551Z,62.65
2022-10-19T09:24:16.626Z,65.78
2022-10-19T09:26:53.490Z,67.91
2022-10-19T09:29:35.430Z,69.40
2022-10-19T09:32:06.818Z,70.39
2022-10-19T09:34:51.254Z,71.27
2022-10-19T09:37:26.007Z,71.88
2022-10-19T09:39:56.295Z,71.44
2022-10-19T09:42:34.354Z,70.99
2022-10-19T09:45:20.083Z,70.23
2022-10-19T09:47:49.172Z,69.81
2022-10-19T09:50:24.482Z,67.83
2022-10-19T09:52:55.499Z,67.27
2022-10-19T09:55:36.091Z,67.70
2022-10-19T09:58:15.383Z,68.38
2022-10-19T10:00:51.753Z,69.87
2022-10-19T10:03:29.108Z,70.71
2022-10-19T10:06:06.698Z,71.00
2022-10-19T10:08:38.753Z,71.46
2022-10-19T10:11:13.294Z,70.71
2022-10-19T10:13:49.523Z,69.47
2022-10-19T10:16:21.166Z,68.94
2022-10-19T10:19:06.433Z,66.54
2022-10-19T10:21:55.852Z,66.51
2022-10-19T10:24:30.419Z,62.76
2022-10-19T10:27:01.070Z,59.83
2022-10-19T10:29:29.017Z,58.06
2022-10-19T10:32:15.246Z,57.57
2022-10-19T10:34:58.548Z,56.82
2022-10-19T10:37:41.868Z,56.62
2022-10-19T10:40:39.539Z,56.39
2022-10-19T10:43:14.202Z,56.18
2022-10-19T10:45:49.452Z,57.03
2022-10-19T10:48:36.306Z,58.23
2022-10-19T10:51:10.675Z,59.15
2022-10-19T10:53:45.055Z,59.39
2022-10-19T10:56:26.357Z,58.45
2022-10-19T10:59:14.799Z,56.82
2022-10-19T11:02:00.324Z,55.41
2022-10-19T11:04:35.597Z,54.16
2022-10-19T11:07:18.350Z,52.78
2022-10-19T11:09:54.717Z,52.72
2022-10-19T11:12:37.382Z,52.08
2022-10-19T11:15:25.776Z,51.91
2022-10-19T11:18:26.366Z,52.79
2022-10-19T11:21:15.941Z,53.94
2022-10-19T11:24:16.329Z,55.32
2022-10-19T11:26:47.582Z,57.50
2022-10-19T11:29:32.094Z,58.80
2022-10-19T11:32:00.806Z,59.36
2022-10-19T11:34:45.060Z,59.38
2022-10-19T11:37:16.081Z,59.38
2022-10-19T11:40:06.053Z,58.52
2022-10-19T11:42:41.282Z,54.12
2022-10-19T11:45:20.725Z,50.04
2022-10-19T11:48:20.851Z,51.38
2022-10-19T11:51:17.313Z,52.82
2022-10-19T11:53:56.185Z,55.10
2022-10-19T11:57:09.401Z,56.66
2022-10-19T12:00:13.922Z,57.98
2022-10-19T12:03:17.637Z,59.43
2022-10-19T12:06:09.476Z,60.15
2022-10-19T12:08:37.493Z,60.13
2022-10-19T12:11:47.958Z,60.24
2022-10-19T12:14:25.379Z,60.93
2022-10-19T12:17:02.491Z,60.80
2022-10-19T12:19:39.467Z,60.90
2022-10-19T12:22:15.462Z,61.28
2022-10-19T12:24:43.652Z,61.19
2022-10-19T12:27:16.312Z,61.20
2022-10-19T12:29:48.657Z,60.12
2022-10-19T12:32:23.127Z,58.06
2022-10-19T12:34:57.983Z,58.26
2022-10-19T12:37:39.642Z,58.60
2022-10-19T12:40:24.606Z,57.41
2022-10-19T12:43:46.429Z,52.69
2022-10-19T12:46:41.804Z,51.32
2022-10-19T12:49:45.305Z,49.83
2022-10-19T12:52:15.250Z,48.04
2022-10-19T12:54:44.545Z,47.21
2022-10-19T12:57:28.031Z,44.29
2022-10-19T13:00:01.882Z,42.27
2022-10-19T13:02:37.051Z,41.41
2022-10-19T13:05:05.822Z,41.12
2022-10-19T13:07:36.629Z,43.03
2022-10-19T13:10:09.746Z,45.18
2022-10-19T13:12:46.889Z,45.78
2022-10-19T13:15:33.581Z,47.78
2022-10-19T13:18:16.934Z,49.70
2022-10-19T13:20:53.539Z,50.67
2022-10-19T13:23:21.533Z,49.28
2022-10-19T13:26:23.925Z,50.30
2022-10-19T13:28:58.125Z,51.50
2022-10-19T13:31:31.920Z,50.55
2022-10-19T13:34:00.569Z,47.39
2022-10-19T13:36:28.954Z,44.91
2022-10-19T13:39:00.294Z,43.56
2022-10-19T13:41:34.577Z,44.92
2022-10-19T13:44:18.447Z,45.29
2022-10-19T13:47:20.924Z,43.61
2022-10-19T13:50:15.533Z,45.60
2022-10-19T13:52:48.945Z,47.84
2022-10-19T13:55:55.702Z,48.90
2022-10-19T13:58:39.207Z,49.97
2022-10-19T14:01:32.769Z,51.62
2022-10-19T14:04:29.600Z,52.58
2022-10-19T14:07:17.405Z,52.35
2022-10-19T14:10:17.832Z,52.09
2022-10-19T14:12:47.109Z,50.62
2022-10-19T14:15:18.331Z,50.90
2022-10-19T14:17:46.614Z,51.43
2022-10-19T14:20:33.674Z,52.03
2022-10-19T14:23:20.373Z,52.54
2022-10-19T14:25:55.134Z,52.75
2022-10-19T14:28:23.877Z,50.49
2022-10-19T14:31:04.073Z,48.35
2022-10-19T14:33:35.613Z,46.39
2022-10-19T14:36:05.638Z,45.86
2022-10-19T14:38:40.417Z,44.34
2022-10-19T14:41:19.929Z,41.96
2022-10-19T14:43:48.267Z,41.98
2022-10-19T14:46:16.924Z,41.60
2022-10-19T14:48:48.906Z,42.38
2022-10-19T14:51:22.960Z,43.96
2022-10-19T14:53:57.163Z,43.90
2022-10-19T14:56:31.843Z,45.64
2022-10-19T14:59:05.024Z,47.07
2022-10-19T15:01:34.737Z,48.69
2022-10-19T15:04:03.376Z,49.73
2022-10-19T15:06:42.481Z,50.50
2022-10-19T15:09:37.048Z,51.50
2022-10-19T15:12:14.595Z,52.45
2022-10-19T15:14:43.833Z,53.29
2022-10-19T15:17:33.224Z,54.08
2022-10-19T15:20:01.996Z,54.68
2022-10-19T15:22:33.249Z,55.27
2022-10-19T15:25:25.036Z,55.60
2022-10-19T15:27:54.397Z,56.40
2022-10-19T15:30:28.927Z,56.60
2022-10-19T15:32:57.172Z,57.35
2022-10-19T15:35:25.503Z,57.86
2022-10-19T15:38:05.377Z,58.20
2022-10-19T15:40:37.220Z,58.84
2022-10-19T15:43:44.300Z,59.45
2022-10-19T15:46:12.439Z,59.81
2022-10-19T15:48:40.799Z,60.01
2022-10-19T15:51:27.379Z,60.03
2022-10-19T15:53:58.285Z,59.98
2022-10-19T15:56:30.668Z,59.77
2022-10-19T15:59:01.613Z,59.61
2022-10-19T16:01:32.992Z,59.37
2022-10-19T16:04:01.839Z,59.33
2022-10-19T16:06:33.243Z,59.00
2022-10-19T16:09:02.187Z,59.09
2022-10-19T16:11:32.520Z,59.13
2022-10-19T16:14:01.192Z,59.08
2022-10-19T16:16:32.367Z,58.93
2022-10-19T16:19:01.242Z,58.92
2022-10-19T16:21:33.540Z,58.75
2022-10-19T16:24:02.378Z,58.34
2022-10-19T16:26:32.419Z,58.51
2022-10-19T16:29:01.987Z,58.26
2022-10-19T16:31:31.630Z,58.09
2022-10-19T16:34:00.013Z,57.91
2022-10-19T16:36:28.324Z,57.63
2022-10-19T16:38:56.629Z,57.41
2022-10-19T16:41:24.937Z,57.41
2022-10-19T16:43:57.294Z,57.29
2022-10-19T16:46:27.458Z,57.76
2022-10-19T16:48:55.931Z,57.91
2022-10-19T16:51:32.198Z,58.24
2022-10-19T16:54:00.785Z,58.35
2022-10-19T16:56:30.904Z,58.45
2022-10-19T16:59:02.782Z,58.44
2022-10-19T17:01:33.065Z,58.62
2022-10-19T17:04:02.235Z,58.68
2022-10-19T17:06:30.530Z,58.39
2022-10-19T17:09:30.256Z,58.75
2022-10-19T17:11:49.141Z,58.80
2022-10-19T17:14:17.567Z,58.93
2022-10-19T17:16:46.293Z,58.52
2022-10-19T17:19:14.492Z,58.73
2022-10-19T17:21:42.735Z,58.92
2022-10-19T17:24:22.038Z,58.86
2022-10-19T17:26:52.149Z,58.82
2022-10-19T17:29:22.577Z,58.87
2022-10-19T17:31:51.039Z,58.80
2022-10-19T17:34:19.348Z,58.45
2022-10-19T17:36:48.269Z,58.27
2022-10-19T17:39:25.728Z,57.99
2022-10-19T17:42:02.278Z,57.93
2022-10-19T17:44:31.769Z,58.03
2022-10-19T17:47:00.894Z,58.23
2022-10-19T17:49:30.260Z,58.46
2022-10-19T17:51:58.952Z,58.79
2022-10-19T17:54:27.320Z,58.97
2022-10-19T17:56:55.953Z,59.14
2022-10-19T17:59:34.555Z,59.01
2022-10-19T18:02:04.990Z,59.00
2022-10-19T18:04:33.302Z,59.15
2022-10-19T18:07:02.325Z,58.95
2022-10-19T18:09:30.845Z,58.60
2022-10-19T18:12:02.291Z,58.60
2022-10-19T18:14:32.902Z,58.58
2022-10-19T18:17:01.112Z,58.66
2022-10-19T18:19:29.266Z,58.82
2022-10-19T18:21:57.745Z,58.80
2022-10-19T18:24:26.593Z,59.13
2022-10-19T18:26:54.969Z,58.83
2022-10-19T18:29:26.077Z,58.86
2022-10-19T18:31:55.751Z,58.64
2022-10-19T18:34:26.506Z,58.92
2022-10-19T18:36:55.124Z,58.70
2022-10-19T18:39:23.850Z,58.64
2022-10-19T18:41:56.468Z,58.41
2022-10-19T18:44:26.949Z,58.30
2022-10-19T18:46:57.803Z,58.40
2022-10-19T18:49:26.116Z,58.66
2022-10-19T18:51:55.857Z,58.80
2022-10-19T18:54:26.580Z,58.84
2022-10-19T18:56:55.522Z,58.99
2022-10-19T18:59:24.119Z,59.53
2022-10-19T19:01:52.746Z,59.68
2022-10-19T19:04:21.061Z,60.20
2022-10-19T19:06:49.395Z,60.57
2022-10-19T19:09:19.033Z,61.12
2022-10-19T19:11:48.029Z,61.34
2022-10-19T19:14:21.181Z,61.70
2022-10-19T19:16:49.834Z,61.96
2022-10-19T19:19:19.779Z,62.29
2022-10-19T19:21:49.161Z,62.56
2022-10-19T19:24:22.280Z,62.82
2022-10-19T19:26:54.079Z,62.88
2022-10-19T19:29:22.781Z,63.22
2022-10-19T19:31:51.799Z,63.45
2022-10-19T19:34:20.644Z,63.59
2022-10-19T19:36:52.306Z,63.68
2022-10-19T19:39:21.496Z,63.91
2022-10-19T19:41:50.612Z,64.10
2022-10-19T19:44:19.455Z,63.79
2022-10-19T19:46:48.147Z,63.75
2022-10-19T19:49:16.622Z,63.64
2022-10-19T19:51:44.969Z,63.75
2022-10-19T19:54:16.202Z,63.74
2022-10-19T19:56:44.394Z,63.68
2022-10-19T19:59:13.536Z,64.02
2022-10-19T20:01:42.057Z,63.73
2022-10-19T20:04:10.583Z,63.90
2022-10-19T20:06:40.487Z,63.95
2022-10-19T20:09:10.852Z,64.17
2022-10-19T20:11:42.572Z,64.42
2022-10-19T20:14:12.148Z,64.59
2022-10-19T20:16:40.888Z,64.46
2022-10-19T20:19:13.936Z,64.82
2022-10-19T20:21:42.894Z,65.30
2022-10-19T20:24:11.206Z,65.29
2022-10-19T20:26:39.549Z,65.63
2022-10-19T20:29:08.255Z,65.66
2022-10-19T20:31:40.429Z,66.18
2022-10-19T20:34:14.236Z,66.05
2022-10-19T20:36:42.762Z,66.69
2022-10-19T20:39:11.224Z,67.14
2022-10-19T20:41:39.555Z,67.10
2022-10-19T20:44:07.824Z,67.11
2022-10-19T20:46:37.273Z,67.51
2022-10-19T20:49:05.894Z,67.48
2022-10-19T20:51:37.018Z,68.30
2022-10-19T20:54:08.430Z,68.00
2022-10-19T20:56:39.385Z,68.41
2022-10-19T20:59:12.664Z,68.47
2022-10-19T21:01:42.251Z,68.91
2022-10-19T21:04:13.356Z,68.64
2022-10-19T21:06:44.358Z,69.07
2022-10-19T21:09:15.920Z,69.39
2022-10-19T21:11:45.677Z,69.79
2022-10-19T21:14:17.330Z,69.47
2022-10-19T21:16:45.649Z,69.38
2022-10-19T21:19:19.208Z,69.36
2022-10-19T21:21:50.896Z,69.85
2022-10-19T21:24:21.379Z,70.21
2022-10-19T21:26:49.709Z,70.29
2022-10-19T21:29:18.933Z,70.39
2022-10-19T21:31:49.731Z,70.41
2022-10-19T21:34:23.891Z,70.30
2022-10-19T21:36:53.324Z,70.47
2022-10-19T21:39:22.468Z,70.93
2022-10-19T21:41:51.382Z,70.86
2022-10-19T21:44:22.449Z,71.35
2022-10-19T21:46:50.841Z,71.43
2022-10-19T21:49:19.290Z,71.68
2022-10-19T21:51:50.821Z,71.92
2022-10-19T21:54:22.123Z,71.86
2022-10-19T21:56:51.116Z,72.37
2022-10-19T21:59:19.457Z,72.41
2022-10-19T22:01:47.964Z,72.85
2022-10-19T22:04:18.005Z,72.76
2022-10-19T22:06:46.164Z,73.12
2022-10-19T22:09:17.055Z,73.03
2022-10-19T22:11:45.695Z,73.30
2022-10-19T22:14:15.516Z,73.64
2022-10-19T22:16:44.385Z,73.42
2022-10-19T22:19:12.839Z,73.39
2022-10-19T22:21:41.325Z,73.97
2022-10-19T22:24:13.741Z,73.97
2022-10-19T22:26:45.226Z,73.57
2022-10-19T22:29:13.912Z,73.71
2022-10-19T22:31:42.172Z,73.89
2022-10-19T22:34:14.257Z,73.99
2022-10-19T22:36:42.992Z,74.02
2022-10-19T22:39:12.034Z,74.26
2022-10-19T22:41:40.284Z,73.84
2022-10-19T22:44:08.918Z,73.75
2022-10-19T22:46:37.353Z,73.75
2022-10-19T22:49:05.481Z,73.89
2022-10-19T22:51:33.656Z,73.65
2022-10-19T22:54:01.855Z,73.42
2022-10-19T22:56:30.211Z,74.25
2022-10-19T22:59:00.251Z,74.17
2022-10-19T23:01:28.741Z,74.46
2022-10-19T23:03:56.979Z,74.27
2022-10-19T23:06:25.740Z,74.54
2022-10-19T23:08:54.649Z,74.72
2022-10-19T23:11:23.657Z,74.91
2022-10-19T23:13:52.160Z,74.51
2022-10-19T23:16:20.632Z,74.77
2022-10-19T23:18:48.818Z,74.85
2022-10-19T23:21:17.074Z,74.85
2022-10-19T23:23:45.439Z,75.01
2022-10-19T23:26:14.966Z,75.30
2022-10-19T23:28:45.688Z,75.63
2022-10-19T23:31:24.599Z,75.61
2022-10-19T23:33:53.784Z,75.66
2022-10-19T23:36:25.323Z,75.43
2022-10-19T23:38:54.630Z,75.69
2022-10-19T23:41:23.210Z,75.57
2022-10-19T23:43:51.612Z,75.76
2022-10-19T23:46:19.945Z,76.06
2022-10-19T23:48:48.189Z,76.11
2022-10-19T23:51:19.452Z,76.32
2022-10-19T23:53:50.633Z,76.46
2022-10-19T23:56:20.641Z,76.58
2022-10-19T23:58:49.665Z,76.59
